sensor_id;sensor_type;location;lat;lon;timestamp;pressure;altitude;pressure_sealevel;temperature;humidity
43147;BME280;28752;48.266;7.402;2023-02-15T00:00:25;100853.19;;;0.50;100.00
43147;BME280;28752;48.266;7.402;2023-02-15T00:02:51;100857.41;;;0.53;100.00
43147;BME280;28752;48.266;7.402;2023-02-15T00:05:16;100843.31;;;0.32;100.00
43147;BME280;28752;48.266;7.402;2023-02-15T00:07:42;100859.38;;;0.46;100.00
43147;BME280;28752;48.266;7.402;2023-02-15T00:10:08;100857.13;;;0.34;100.00
43147;BME280;28752;48.266;7.402;2023-02-15T00:12:33;100858.94;;;0.32;100.00
43147;BME280;28752;48.266;7.402;2023-02-15T00:14:59;100840.97;;;0.23;100.00
43147;BME280;28752;48.266;7.402;2023-02-15T00:17:27;100850.03;;;0.39;100.00
43147;BME280;28752;48.266;7.402;2023-02-15T00:19:52;100844.25;;;0.29;100.00
43147;BME280;28752;48.266;7.402;2023-02-15T00:22:17;100840.78;;;0.29;100.00
43147;BME280;28752;48.266;7.402;2023-02-15T00:24:43;100844.97;;;0.34;100.00
43147;BME280;28752;48.266;7.402;2023-02-15T00:27:08;100846.84;;;0.29;100.00
43147;BME280;28752;48.266;7.402;2023-02-15T00:29:34;100837.75;;;0.14;100.00
43147;BME280;28752;48.266;7.402;2023-02-15T00:31:59;100853.50;;;0.10;100.00
43147;BME280;28752;48.266;7.402;2023-02-15T00:34:26;100852.00;;;0.01;100.00
43147;BME280;28752;48.266;7.402;2023-02-15T00:36:52;100853.47;;;0.11;100.00
43147;BME280;28752;48.266;7.402;2023-02-15T00:39:18;100849.97;;;0.12;100.00
43147;BME280;28752;48.266;7.402;2023-02-15T00:41:45;100850.31;;;0.00;100.00
43147;BME280;28752;48.266;7.402;2023-02-15T00:44:12;100854.59;;;0.01;100.00
43147;BME280;28752;48.266;7.402;2023-02-15T00:46:38;100852.19;;;-0.05;100.00
43147;BME280;28752;48.266;7.402;2023-02-15T00:49:03;100826.94;;;-0.03;100.00
43147;BME280;28752;48.266;7.402;2023-02-15T00:51:29;100848.44;;;0.05;100.00
43147;BME280;28752;48.266;7.402;2023-02-15T00:53:55;100831.78;;;0.11;100.00
43147;BME280;28752;48.266;7.402;2023-02-15T00:56:20;100846.00;;;-0.01;100.00
43147;BME280;28752;48.266;7.402;2023-02-15T00:58:46;100831.81;;;0.09;100.00
43147;BME280;28752;48.266;7.402;2023-02-15T01:01:17;100832.88;;;0.02;100.00
43147;BME280;28752;48.266;7.402;2023-02-15T01:03:43;100830.41;;;-0.03;100.00
43147;BME280;28752;48.266;7.402;2023-02-15T01:06:10;100839.81;;;0.03;100.00
43147;BME280;28752;48.266;7.402;2023-02-15T01:08:35;100834.75;;;-0.03;100.00
43147;BME280;28752;48.266;7.402;2023-02-15T01:11:12;100833.03;;;-0.03;100.00
43147;BME280;28752;48.266;7.402;2023-02-15T01:13:38;100830.50;;;-0.06;100.00
43147;BME280;28752;48.266;7.402;2023-02-15T01:16:04;100836.66;;;-0.08;100.00
43147;BME280;28752;48.266;7.402;2023-02-15T01:18:30;100830.56;;;-0.07;100.00
43147;BME280;28752;48.266;7.402;2023-02-15T01:20:56;100829.84;;;-0.14;100.00
43147;BME280;28752;48.266;7.402;2023-02-15T01:23:22;100829.91;;;-0.15;100.00
43147;BME280;28752;48.266;7.402;2023-02-15T01:25:47;100823.41;;;-0.30;100.00
43147;BME280;28752;48.266;7.402;2023-02-15T01:28:12;100822.34;;;-0.25;100.00
43147;BME280;28752;48.266;7.402;2023-02-15T01:30:38;100833.28;;;-0.12;100.00
43147;BME280;28752;48.266;7.402;2023-02-15T01:33:03;100829.34;;;-0.27;100.00
43147;BME280;28752;48.266;7.402;2023-02-15T01:35:29;100830.91;;;-0.20;100.00
43147;BME280;28752;48.266;7.402;2023-02-15T01:37:55;100828.97;;;-0.13;100.00
43147;BME280;28752;48.266;7.402;2023-02-15T01:40:21;100825.69;;;-0.20;100.00
43147;BME280;28752;48.266;7.402;2023-02-15T01:42:53;100795.88;;;-0.09;100.00
43147;BME280;28752;48.266;7.402;2023-02-15T01:45:27;100821.03;;;-0.08;100.00
43147;BME280;28752;48.266;7.402;2023-02-15T01:52:57;100823.53;;;-0.05;100.00
43147;BME280;28752;48.266;7.402;2023-02-15T01:55:25;100819.06;;;0.00;100.00
43147;BME280;28752;48.266;7.402;2023-02-15T01:57:53;100810.78;;;-0.14;100.00
43147;BME280;28752;48.266;7.402;2023-02-15T02:00:19;100801.53;;;-0.25;100.00
43147;BME280;28752;48.266;7.402;2023-02-15T02:02:47;100798.16;;;-0.28;100.00
43147;BME280;28752;48.266;7.402;2023-02-15T02:05:15;100808.94;;;-0.11;100.00
43147;BME280;28752;48.266;7.402;2023-02-15T02:07:43;100805.81;;;-0.22;100.00
43147;BME280;28752;48.266;7.402;2023-02-15T02:10:12;100814.28;;;-0.15;100.00
43147;BME280;28752;48.266;7.402;2023-02-15T02:12:40;100813.47;;;-0.17;100.00
43147;BME280;28752;48.266;7.402;2023-02-15T02:15:08;100803.25;;;-0.24;100.00
43147;BME280;28752;48.266;7.402;2023-02-15T02:20:28;100811.00;;;-0.22;100.00
43147;BME280;28752;48.266;7.402;2023-02-15T02:23:16;100806.47;;;-0.15;100.00
43147;BME280;28752;48.266;7.402;2023-02-15T02:37:06;100794.63;;;0.04;100.00
43147;BME280;28752;48.266;7.402;2023-02-15T02:39:47;100784.03;;;-0.20;100.00
43147;BME280;28752;48.266;7.402;2023-02-15T02:42:18;100797.84;;;-0.17;100.00
43147;BME280;28752;48.266;7.402;2023-02-15T02:44:50;100781.31;;;-0.15;100.00
43147;BME280;28752;48.266;7.402;2023-02-15T02:47:26;100791.31;;;-0.01;100.00
43147;BME280;28752;48.266;7.402;2023-02-15T02:50:00;100792.28;;;-0.05;100.00
43147;BME280;28752;48.266;7.402;2023-02-15T02:55:07;100787.88;;;-0.03;100.00
43147;BME280;28752;48.266;7.402;2023-02-15T02:57:37;100785.50;;;-0.11;100.00
43147;BME280;28752;48.266;7.402;2023-02-15T03:00:06;100784.25;;;0.03;100.00
43147;BME280;28752;48.266;7.402;2023-02-15T03:02:37;100789.81;;;-0.10;100.00
43147;BME280;28752;48.266;7.402;2023-02-15T03:05:07;100787.81;;;0.00;100.00
43147;BME280;28752;48.266;7.402;2023-02-15T03:07:34;100787.00;;;-0.02;100.00
43147;BME280;28752;48.266;7.402;2023-02-15T03:10:02;100792.97;;;0.02;100.00
43147;BME280;28752;48.266;7.402;2023-02-15T03:12:34;100796.66;;;-0.06;100.00
43147;BME280;28752;48.266;7.402;2023-02-15T03:15:10;100784.03;;;-0.20;100.00
43147;BME280;28752;48.266;7.402;2023-02-15T03:17:41;100784.66;;;-0.11;100.00
43147;BME280;28752;48.266;7.402;2023-02-15T03:20:16;100786.34;;;-0.09;100.00
43147;BME280;28752;48.266;7.402;2023-02-15T03:22:53;100781.31;;;-0.15;100.00
43147;BME280;28752;48.266;7.402;2023-02-15T03:25:27;100780.19;;;-0.08;100.00
43147;BME280;28752;48.266;7.402;2023-02-15T03:27:59;100777.66;;;-0.09;100.00
43147;BME280;28752;48.266;7.402;2023-02-15T03:30:28;100784.94;;;-0.21;100.00
43147;BME280;28752;48.266;7.402;2023-02-15T03:32:58;100781.53;;;-0.23;100.00
43147;BME280;28752;48.266;7.402;2023-02-15T03:35:25;100769.94;;;-0.12;100.00
43147;BME280;28752;48.266;7.402;2023-02-15T03:38:00;100776.75;;;-0.08;100.00
43147;BME280;28752;48.266;7.402;2023-02-15T03:40:26;100775.09;;;-0.11;100.00
43147;BME280;28752;48.266;7.402;2023-02-15T03:43:30;100777.97;;;0.10;100.00
43147;BME280;28752;48.266;7.402;2023-02-15T03:45:59;100782.63;;;0.00;100.00
43147;BME280;28752;48.266;7.402;2023-02-15T03:48:40;100781.75;;;-0.30;100.00
43147;BME280;28752;48.266;7.402;2023-02-15T03:51:29;100775.50;;;-0.25;100.00
43147;BME280;28752;48.266;7.402;2023-02-15T03:54:07;100780.06;;;-0.33;100.00
43147;BME280;28752;48.266;7.402;2023-02-15T03:56:36;100777.56;;;-0.36;100.00
43147;BME280;28752;48.266;7.402;2023-02-15T03:59:02;100771.53;;;-0.38;100.00
43147;BME280;28752;48.266;7.402;2023-02-15T04:01:53;100777.53;;;-0.34;100.00
43147;BME280;28752;48.266;7.402;2023-02-15T04:06:57;100770.16;;;-0.50;100.00
43147;BME280;28752;48.266;7.402;2023-02-15T04:09:22;100776.78;;;-0.40;100.00
43147;BME280;28752;48.266;7.402;2023-02-15T04:12:06;100775.94;;;-0.40;100.00
43147;BME280;28752;48.266;7.402;2023-02-15T04:14:32;100770.38;;;-0.28;100.00
43147;BME280;28752;48.266;7.402;2023-02-15T04:17:16;100775.75;;;-0.34;100.00
43147;BME280;28752;48.266;7.402;2023-02-15T04:19:41;100773.19;;;-0.36;100.00
43147;BME280;28752;48.266;7.402;2023-02-15T04:22:25;100771.47;;;-0.37;100.00
43147;BME280;28752;48.266;7.402;2023-02-15T04:25:09;100764.97;;;-0.51;100.00
43147;BME280;28752;48.266;7.402;2023-02-15T04:27:36;100777.38;;;-0.30;100.00
43147;BME280;28752;48.266;7.402;2023-02-15T04:30:03;100772.03;;;-0.25;100.00
43147;BME280;28752;48.266;7.402;2023-02-15T04:32:28;100762.97;;;-0.42;100.00
43147;BME280;28752;48.266;7.402;2023-02-15T04:34:53;100761.25;;;-0.43;100.00
43147;BME280;28752;48.266;7.402;2023-02-15T04:37:19;100755.28;;;-0.46;100.00
43147;BME280;28752;48.266;7.402;2023-02-15T04:39:44;100784.50;;;-0.37;100.00
43147;BME280;28752;48.266;7.402;2023-02-15T04:42:09;100784.34;;;-0.30;100.00
43147;BME280;28752;48.266;7.402;2023-02-15T04:44:35;100778.56;;;-0.42;100.00
43147;BME280;28752;48.266;7.402;2023-02-15T04:47:00;100776.56;;;-0.32;100.00
43147;BME280;28752;48.266;7.402;2023-02-15T04:49:25;100767.31;;;-0.42;100.00
43147;BME280;28752;48.266;7.402;2023-02-15T04:51:51;100775.94;;;-0.40;100.00
43147;BME280;28752;48.266;7.402;2023-02-15T04:54:16;100786.09;;;-0.31;100.00
43147;BME280;28752;48.266;7.402;2023-02-15T04:56:42;100774.25;;;-0.43;100.00
43147;BME280;28752;48.266;7.402;2023-02-15T04:59:11;100775.84;;;-0.37;100.00
43147;BME280;28752;48.266;7.402;2023-02-15T05:01:36;100776.03;;;-0.43;100.00
43147;BME280;28752;48.266;7.402;2023-02-15T05:04:02;100779.69;;;-0.50;100.00
43147;BME280;28752;48.266;7.402;2023-02-15T05:06:28;100768.50;;;-0.54;100.00
43147;BME280;28752;48.266;7.402;2023-02-15T05:08:54;100776.16;;;-0.48;100.00
43147;BME280;28752;48.266;7.402;2023-02-15T05:11:19;100771.16;;;-0.24;100.00
43147;BME280;28752;48.266;7.402;2023-02-15T05:13:44;100774.22;;;-0.41;100.00
43147;BME280;28752;48.266;7.402;2023-02-15T05:16:10;100758.84;;;-0.50;100.00
43147;BME280;28752;48.266;7.402;2023-02-15T05:18:35;100769.34;;;-0.54;100.00
43147;BME280;28752;48.266;7.402;2023-02-15T05:21:00;100775.44;;;-0.53;100.00
43147;BME280;28752;48.266;7.402;2023-02-15T05:23:26;100773.06;;;-0.62;100.00
43147;BME280;28752;48.266;7.402;2023-02-15T05:25:52;100774.47;;;-0.50;100.00
43147;BME280;28752;48.266;7.402;2023-02-15T05:28:37;100766.88;;;-0.58;100.00
43147;BME280;28752;48.266;7.402;2023-02-15T05:31:11;100765.19;;;-0.59;100.00
43147;BME280;28752;48.266;7.402;2023-02-15T05:33:38;100769.81;;;-0.70;100.00
43147;BME280;28752;48.266;7.402;2023-02-15T05:36:04;100767.75;;;-0.58;100.00
43147;BME280;28752;48.266;7.402;2023-02-15T05:38:29;100768.78;;;-0.63;100.00
43147;BME280;28752;48.266;7.402;2023-02-15T05:40:55;100767.91;;;-0.64;100.00
43147;BME280;28752;48.266;7.402;2023-02-15T05:43:21;100769.63;;;-0.63;100.00
43147;BME280;28752;48.266;7.402;2023-02-15T05:45:50;100770.44;;;-0.61;100.00
43147;BME280;28752;48.266;7.402;2023-02-15T05:48:17;100770.44;;;-0.61;100.00
43147;BME280;28752;48.266;7.402;2023-02-15T05:50:42;100783.44;;;-0.61;100.00
43147;BME280;28752;48.266;7.402;2023-02-15T05:53:08;100778.47;;;-0.70;100.00
43147;BME280;28752;48.266;7.402;2023-02-15T05:55:33;100772.41;;;-0.70;100.00
43147;BME280;28752;48.266;7.402;2023-02-15T05:57:58;100776.63;;;-0.65;100.00
43147;BME280;28752;48.266;7.402;2023-02-15T06:00:24;100778.25;;;-0.62;100.00
43147;BME280;28752;48.266;7.402;2023-02-15T06:02:50;100774.59;;;-0.55;100.00
43147;BME280;28752;48.266;7.402;2023-02-15T06:05:16;100769.63;;;-0.63;100.00
43147;BME280;28752;48.266;7.402;2023-02-15T06:07:44;100776.53;;;-0.62;100.00
43147;BME280;28752;48.266;7.402;2023-02-15T06:10:10;100775.91;;;-0.72;100.00
43147;BME280;28752;48.266;7.402;2023-02-15T06:12:35;100777.63;;;-0.70;100.00
43147;BME280;28752;48.266;7.402;2023-02-15T06:15:01;100778.13;;;-0.56;100.00
43147;BME280;28752;48.266;7.402;2023-02-15T06:17:26;100772.22;;;-0.63;100.00
43147;BME280;28752;48.266;7.402;2023-02-15T06:19:52;100773.75;;;-0.56;100.00
43147;BME280;28752;48.266;7.402;2023-02-15T06:22:17;100773.59;;;-0.49;100.00
43147;BME280;28752;48.266;7.402;2023-02-15T06:24:42;100780.72;;;-0.56;100.00
43147;BME280;28752;48.266;7.402;2023-02-15T06:27:09;100775.44;;;-0.53;100.00
43147;BME280;28752;48.266;7.402;2023-02-15T06:29:35;100787.53;;;-0.52;100.00
43147;BME280;28752;48.266;7.402;2023-02-15T06:32:00;100789.50;;;-0.60;100.00
43147;BME280;28752;48.266;7.402;2023-02-15T06:34:26;100798.06;;;-0.57;100.00
43147;BME280;28752;48.266;7.402;2023-02-15T06:36:51;100798.72;;;-0.48;100.00
43147;BME280;28752;48.266;7.402;2023-02-15T06:39:16;100796.22;;;-0.51;100.00
43147;BME280;28752;48.266;7.402;2023-02-15T06:41:42;100799.53;;;-0.46;100.00
43147;BME280;28752;48.266;7.402;2023-02-15T06:44:07;100804.38;;;-0.34;100.00
43147;BME280;28752;48.266;7.402;2023-02-15T06:46:33;100805.94;;;-0.27;100.00
43147;BME280;28752;48.266;7.402;2023-02-15T06:48:58;100802.63;;;-0.33;100.00
43147;BME280;28752;48.266;7.402;2023-02-15T06:51:23;100800.91;;;-0.33;100.00
43147;BME280;28752;48.266;7.402;2023-02-15T06:53:49;100807.19;;;-0.42;100.00
43147;BME280;28752;48.266;7.402;2023-02-15T06:56:14;100809.75;;;-0.40;100.00
43147;BME280;28752;48.266;7.402;2023-02-15T06:58:40;100810.38;;;-0.32;100.00
43147;BME280;28752;48.266;7.402;2023-02-15T07:01:08;100809.63;;;-0.36;100.00
43147;BME280;28752;48.266;7.402;2023-02-15T07:03:34;100802.75;;;-0.38;100.00
43147;BME280;28752;48.266;7.402;2023-02-15T07:06:00;100806.00;;;-0.30;100.00
43147;BME280;28752;48.266;7.402;2023-02-15T07:08:27;100796.88;;;-0.45;100.00
43147;BME280;28752;48.266;7.402;2023-02-15T07:10:53;100804.78;;;-0.48;100.00
43147;BME280;28752;48.266;7.402;2023-02-15T07:13:18;100810.66;;;-0.41;100.00
43147;BME280;28752;48.266;7.402;2023-02-15T07:15:45;100803.81;;;-0.44;100.00
43147;BME280;28752;48.266;7.402;2023-02-15T07:18:11;100797.47;;;-0.35;100.00
43147;BME280;28752;48.266;7.402;2023-02-15T07:20:36;100804.25;;;-0.29;100.00
43147;BME280;28752;48.266;7.402;2023-02-15T07:23:03;100798.44;;;-0.38;100.00
43147;BME280;28752;48.266;7.402;2023-02-15T07:25:28;100791.63;;;-0.43;100.00
43147;BME280;28752;48.266;7.402;2023-02-15T07:27:58;100787.00;;;-0.33;100.00
43147;BME280;28752;48.266;7.402;2023-02-15T07:30:24;100784.13;;;-0.23;100.00
43147;BME280;28752;48.266;7.402;2023-02-15T07:32:49;100790.53;;;-0.34;100.00
43147;BME280;28752;48.266;7.402;2023-02-15T07:35:33;100793.88;;;-0.31;100.00
43147;BME280;28752;48.266;7.402;2023-02-15T07:38:00;100795.59;;;-0.30;100.00
43147;BME280;28752;48.266;7.402;2023-02-15T07:40:25;100799.00;;;-0.28;100.00
43147;BME280;28752;48.266;7.402;2023-02-15T07:42:50;100796.84;;;-0.43;100.00
43147;BME280;28752;48.266;7.402;2023-02-15T07:45:18;100792.03;;;-0.26;100.00
43147;BME280;28752;48.266;7.402;2023-02-15T07:47:43;100787.53;;;-0.21;100.00
43147;BME280;28752;48.266;7.402;2023-02-15T07:50:09;100787.53;;;-0.21;100.00
43147;BME280;28752;48.266;7.402;2023-02-15T07:52:34;100787.72;;;-0.27;100.00
43147;BME280;28752;48.266;7.402;2023-02-15T07:55:00;100797.94;;;-0.21;100.00
43147;BME280;28752;48.266;7.402;2023-02-15T07:57:25;100793.41;;;-0.14;100.00
43147;BME280;28752;48.266;7.402;2023-02-15T07:59:50;100792.56;;;-0.14;100.00
43147;BME280;28752;48.266;7.402;2023-02-15T08:02:16;100792.59;;;-0.16;100.00
43147;BME280;28752;48.266;7.402;2023-02-15T08:04:41;100793.50;;;-0.17;100.00
43147;BME280;28752;48.266;7.402;2023-02-15T08:07:06;100790.66;;;-0.09;100.00
43147;BME280;28752;48.266;7.402;2023-02-15T08:09:32;100791.31;;;-0.01;100.00
43147;BME280;28752;48.266;7.402;2023-02-15T08:11:57;100787.19;;;-0.08;100.00
43147;BME280;28752;48.266;7.402;2023-02-15T08:14:22;100780.34;;;-0.12;100.00
43147;BME280;28752;48.266;7.402;2023-02-15T08:16:53;100792.06;;;0.03;100.00
43147;BME280;28752;48.266;7.402;2023-02-15T08:19:26;100793.47;;;0.14;100.00
43147;BME280;28752;48.266;7.402;2023-02-15T08:21:55;100795.97;;;0.17;100.00
43147;BME280;28752;48.266;7.402;2023-02-15T08:24:24;100784.47;;;0.25;100.00
43147;BME280;28752;48.266;7.402;2023-02-15T08:26:51;100793.81;;;0.30;100.00
43147;BME280;28752;48.266;7.402;2023-02-15T08:29:21;100786.66;;;0.39;100.00
43147;BME280;28752;48.266;7.402;2023-02-15T08:31:49;100785.31;;;0.25;99.09
43147;BME280;28752;48.266;7.402;2023-02-15T08:34:16;100777.81;;;0.14;99.38
43147;BME280;28752;48.266;7.402;2023-02-15T08:36:42;100780.81;;;0.30;100.00
43147;BME280;28752;48.266;7.402;2023-02-15T08:39:10;100772.09;;;0.31;100.00
43147;BME280;28752;48.266;7.402;2023-02-15T08:41:37;100778.03;;;0.37;99.48
43147;BME280;28752;48.266;7.402;2023-02-15T08:44:05;100773.47;;;0.43;99.89
43147;BME280;28752;48.266;7.402;2023-02-15T08:46:34;100781.47;;;0.37;99.94
43147;BME280;28752;48.266;7.402;2023-02-15T08:49:00;100779.63;;;0.41;100.00
43147;BME280;28752;48.266;7.402;2023-02-15T08:51:29;100780.91;;;0.56;100.00
43147;BME280;28752;48.266;7.402;2023-02-15T08:53:56;100777.19;;;0.63;100.00
43147;BME280;28752;48.266;7.402;2023-02-15T08:56:28;100769.47;;;0.60;99.13
43147;BME280;28752;48.266;7.402;2023-02-15T08:58:54;100751.50;;;0.52;98.68
43147;BME280;28752;48.266;7.402;2023-02-15T09:01:23;100770.13;;;0.66;99.06
43147;BME280;28752;48.266;7.402;2023-02-15T09:03:56;100766.38;;;0.75;98.99
43147;BME280;28752;48.266;7.402;2023-02-15T09:06:22;100765.06;;;0.88;98.67
43147;BME280;28752;48.266;7.402;2023-02-15T09:08:48;100764.13;;;0.89;98.13
43147;BME280;28752;48.266;7.402;2023-02-15T09:11:18;100767.72;;;0.87;97.81
43147;BME280;28752;48.266;7.402;2023-02-15T09:13:55;100764.66;;;1.01;96.61
43147;BME280;28752;48.266;7.402;2023-02-15T09:16:22;100760.81;;;1.11;96.26
43147;BME280;28752;48.266;7.402;2023-02-15T09:18:48;100756.91;;;1.23;96.13
43147;BME280;28752;48.266;7.402;2023-02-15T09:21:15;100759.78;;;1.40;95.24
43147;BME280;28752;48.266;7.402;2023-02-15T09:23:42;100759.34;;;1.29;95.42
43147;BME280;28752;48.266;7.402;2023-02-15T09:26:22;100749.00;;;1.26;94.95
43147;BME280;28752;48.266;7.402;2023-02-15T09:28:52;100753.41;;;1.49;94.93
43147;BME280;28752;48.266;7.402;2023-02-15T09:31:20;100732.16;;;1.35;94.19
43147;BME280;28752;48.266;7.402;2023-02-15T09:33:47;100756.13;;;1.46;93.85
43147;BME280;28752;48.266;7.402;2023-02-15T09:36:21;100758.63;;;1.49;93.84
43147;BME280;28752;48.266;7.402;2023-02-15T09:38:52;100745.63;;;1.71;94.06
43147;BME280;28752;48.266;7.402;2023-02-15T09:41:53;100748.47;;;1.65;93.69
43147;BME280;28752;48.266;7.402;2023-02-15T09:52:14;100751.72;;;1.72;91.84
43147;BME280;28752;48.266;7.402;2023-02-15T10:00:26;100747.56;;;1.90;92.03
43147;BME280;28752;48.266;7.402;2023-02-15T10:03:02;100737.25;;;2.09;91.64
43147;BME280;28752;48.266;7.402;2023-02-15T10:06:05;100745.97;;;2.08;91.74
43147;BME280;28752;48.266;7.402;2023-02-15T10:11:17;100748.03;;;2.23;92.08
43147;BME280;28752;48.266;7.402;2023-02-15T10:26:16;100743.84;;;2.62;89.77
43147;BME280;28752;48.266;7.402;2023-02-15T10:31:24;100744.25;;;2.73;88.76
43147;BME280;28752;48.266;7.402;2023-02-15T10:34:04;100745.81;;;2.57;89.32
43147;BME280;28752;48.266;7.402;2023-02-15T10:39:49;100740.41;;;2.82;88.85
43147;BME280;28752;48.266;7.402;2023-02-15T10:50:22;100719.69;;;2.77;87.71
43147;BME280;28752;48.266;7.402;2023-02-15T10:53:11;100711.25;;;3.12;87.94
43147;BME280;28752;48.266;7.402;2023-02-15T11:01:13;100699.13;;;3.49;86.32
43147;BME280;28752;48.266;7.402;2023-02-15T11:06:38;100704.81;;;3.59;85.89
43147;BME280;28752;48.266;7.402;2023-02-15T11:09:11;100698.84;;;3.55;84.95
43147;BME280;28752;48.266;7.402;2023-02-15T11:11:41;100698.03;;;3.73;85.24
43147;BME280;28752;48.266;7.402;2023-02-15T11:14:20;100697.81;;;3.59;85.22
43147;BME280;28752;48.266;7.402;2023-02-15T11:16:55;100685.03;;;3.70;nan
43147;BME280;28752;48.266;7.402;2023-02-15T11:19:35;100688.81;;;3.84;84.35
43147;BME280;28752;48.266;7.402;2023-02-15T11:22:04;100686.81;;;3.70;84.09
43147;BME280;28752;48.266;7.402;2023-02-15T11:24:42;100677.88;;;3.93;83.30
43147;BME280;28752;48.266;7.402;2023-02-15T11:30:01;100657.88;;;3.92;83.74
43147;BME280;28752;48.266;7.402;2023-02-15T11:32:33;100678.47;;;4.17;83.61
43147;BME280;28752;48.266;7.402;2023-02-15T11:37:48;100661.00;;;4.18;83.63
43147;BME280;28752;48.266;7.402;2023-02-15T11:40:30;100663.63;;;4.35;83.13
43147;BME280;28752;48.266;7.402;2023-02-15T11:43:01;100650.94;;;4.45;81.82
43147;BME280;28752;48.266;7.402;2023-02-15T11:45:30;100646.38;;;4.49;81.91
43147;BME280;28752;48.266;7.402;2023-02-15T11:47:57;100644.41;;;4.52;81.96
43147;BME280;28752;48.266;7.402;2023-02-15T11:50:26;100646.28;;;4.50;82.66
43147;BME280;28752;48.266;7.402;2023-02-15T11:52:53;100642.47;;;4.73;81.90
43147;BME280;28752;48.266;7.402;2023-02-15T11:55:22;100622.75;;;4.66;81.42
43147;BME280;28752;48.266;7.402;2023-02-15T11:57:59;100636.91;;;4.79;81.45
43147;BME280;28752;48.266;7.402;2023-02-15T12:00:39;100624.94;;;4.91;81.41
43147;BME280;28752;48.266;7.402;2023-02-15T12:05:40;100617.97;;;4.39;82.42
43147;BME280;28752;48.266;7.402;2023-02-15T12:08:16;100619.81;;;4.72;82.06
43147;BME280;28752;48.266;7.402;2023-02-15T12:11:06;100589.38;;;4.86;81.05
43147;BME280;28752;48.266;7.402;2023-02-15T12:13:32;100603.41;;;5.18;80.90
43147;BME280;28752;48.266;7.402;2023-02-15T12:16:04;100600.22;;;5.29;79.10
43147;BME280;28752;48.266;7.402;2023-02-15T12:18:38;100604.72;;;5.27;79.42
43147;BME280;28752;48.266;7.402;2023-02-15T12:21:10;100601.91;;;5.46;79.54
43147;BME280;28752;48.266;7.402;2023-02-15T12:24:44;100603.75;;;5.12;80.49
43147;BME280;28752;48.266;7.402;2023-02-15T12:27:21;100589.34;;;5.03;81.07
43147;BME280;28752;48.266;7.402;2023-02-15T12:30:07;100587.53;;;4.88;82.36
43147;BME280;28752;48.266;7.402;2023-02-15T12:32:58;100587.84;;;4.82;82.96
43147;BME280;28752;48.266;7.402;2023-02-15T12:35:30;100585.66;;;4.90;83.72
43147;BME280;28752;48.266;7.402;2023-02-15T12:38:03;100586.72;;;5.03;82.34
43147;BME280;28752;48.266;7.402;2023-02-15T12:40:30;100590.41;;;4.99;81.96
43147;BME280;28752;48.266;7.402;2023-02-15T12:42:56;100581.53;;;4.68;83.91
43147;BME280;28752;48.266;7.402;2023-02-15T12:45:33;100586.50;;;4.90;83.51
43147;BME280;28752;48.266;7.402;2023-02-15T12:50:37;100576.81;;;5.24;82.15
43147;BME280;28752;48.266;7.402;2023-02-15T12:55:33;100565.22;;;5.28;82.56
43147;BME280;28752;48.266;7.402;2023-02-15T13:00:43;100565.59;;;4.89;85.62
43147;BME280;28752;48.266;7.402;2023-02-15T13:03:18;100563.34;;;4.98;86.41
43147;BME280;28752;48.266;7.402;2023-02-15T13:05:46;100562.03;;;4.90;86.20
43147;BME280;28752;48.266;7.402;2023-02-15T13:08:19;100555.31;;;4.84;85.81
43147;BME280;28752;48.266;7.402;2023-02-15T13:13:30;100546.34;;;4.72;86.45
43147;BME280;28752;48.266;7.402;2023-02-15T13:16:02;100549.81;;;4.73;86.81
43147;BME280;28752;48.266;7.402;2023-02-15T13:18:34;100545.06;;;4.79;88.41
43147;BME280;28752;48.266;7.402;2023-02-15T13:21:09;100542.13;;;4.86;88.02
43147;BME280;28752;48.266;7.402;2023-02-15T13:23:37;100529.50;;;4.76;88.20
43147;BME280;28752;48.266;7.402;2023-02-15T13:26:04;100528.75;;;4.90;88.16
43147;BME280;28752;48.266;7.402;2023-02-15T13:28:50;100526.41;;;5.02;86.98
43147;BME280;28752;48.266;7.402;2023-02-15T13:31:23;100522.50;;;4.93;88.17
43147;BME280;28752;48.266;7.402;2023-02-15T13:33:54;100522.16;;;4.99;87.80
43147;BME280;28752;48.266;7.402;2023-02-15T13:39:11;100513.53;;;5.13;87.23
43147;BME280;28752;48.266;7.402;2023-02-15T13:50:19;100509.81;;;5.17;86.26
43147;BME280;28752;48.266;7.402;2023-02-15T13:55:50;100513.19;;;5.03;87.18
43147;BME280;28752;48.266;7.402;2023-02-15T14:01:09;100512.09;;;5.23;86.76
43147;BME280;28752;48.266;7.402;2023-02-15T14:09:40;100502.69;;;5.35;85.87
43147;BME280;28752;48.266;7.402;2023-02-15T14:26:14;100508.97;;;5.16;88.87
43147;BME280;28752;48.266;7.402;2023-02-15T14:32:09;100512.44;;;5.01;90.11
43147;BME280;28752;48.266;7.402;2023-02-15T14:37:11;100516.75;;;5.02;89.71
43147;BME280;28752;48.266;7.402;2023-02-15T14:44:09;100517.66;;;4.85;89.91
43147;BME280;28752;48.266;7.402;2023-02-15T14:48:46;100519.78;;;4.94;90.62
43147;BME280;28752;48.266;7.402;2023-02-15T14:51:53;100521.91;;;5.04;89.71
43147;BME280;28752;48.266;7.402;2023-02-15T15:04:35;100523.53;;;5.06;89.82
43147;BME280;28752;48.266;7.402;2023-02-15T15:07:20;100520.25;;;5.03;89.67
43147;BME280;28752;48.266;7.402;2023-02-15T15:09:58;100505.22;;;4.89;90.09
43147;BME280;28752;48.266;7.402;2023-02-15T15:14:51;100510.38;;;4.90;90.06
43147;BME280;28752;48.266;7.402;2023-02-15T15:25:44;100515.72;;;4.55;91.76
43147;BME280;28752;48.266;7.402;2023-02-15T15:41:43;100541.31;;;4.17;93.53
43147;BME280;28752;48.266;7.402;2023-02-15T15:44:44;100538.78;;;4.15;93.40
43147;BME280;28752;48.266;7.402;2023-02-15T15:47:26;100529.53;;;4.08;94.27
43147;BME280;28752;48.266;7.402;2023-02-15T15:49:57;100529.84;;;4.02;94.22
43147;BME280;28752;48.266;7.402;2023-02-15T15:52:24;100524.75;;;3.81;94.85
43147;BME280;28752;48.266;7.402;2023-02-15T15:54:56;100533.59;;;3.79;95.34
43147;BME280;28752;48.266;7.402;2023-02-15T15:57:32;100537.66;;;3.67;95.58
43147;BME280;28752;48.266;7.402;2023-02-15T15:59:59;100532.03;;;3.57;96.28